sensor_id;sensor_type;location;lat;lon;timestamp;pressure;altitude;pressure_sealevel;temperature;humidity
35649;BME280;21768;48.562;13.414;2023-04-03T00:01:00;97877.50;;;6.52;57.20
35649;BME280;21768;48.562;13.414;2023-04-03T00:03:27;97876.75;;;6.53;57.14
35649;BME280;21768;48.562;13.414;2023-04-03T00:05:53;97872.34;;;6.50;57.08
35649;BME280;21768;48.562;13.414;2023-04-03T00:08:19;97887.25;;;6.48;57.31
35649;BME280;21768;48.562;13.414;2023-04-03T00:10:45;97880.47;;;6.47;57.08
35649;BME280;21768;48.562;13.414;2023-04-03T00:13:10;97882.97;;;6.47;57.14
35649;BME280;21768;48.562;13.414;2023-04-03T00:15:37;97884.75;;;6.48;56.94
35649;BME280;21768;48.562;13.414;2023-04-03T00:18:03;97886.09;;;6.45;57.01
35649;BME280;21768;48.562;13.414;2023-04-03T00:20:29;97871.19;;;6.46;57.63
35649;BME280;21768;48.562;13.414;2023-04-03T00:22:55;97878.97;;;6.49;57.28
35649;BME280;21768;48.562;13.414;2023-04-03T00:25:21;97872.47;;;6.52;57.27
35649;BME280;21768;48.562;13.414;2023-04-03T00:27:46;97877.34;;;6.50;57.31
35649;BME280;21768;48.562;13.414;2023-04-03T00:30:14;97877.50;;;6.52;57.42
35649;BME280;21768;48.562;13.414;2023-04-03T00:32:40;97880.88;;;6.52;57.40
35649;BME280;21768;48.562;13.414;2023-04-03T00:35:06;97882.78;;;6.55;57.63
35649;BME280;21768;48.562;13.414;2023-04-03T00:37:32;97887.03;;;6.56;57.67
35649;BME280;21768;48.562;13.414;2023-04-03T00:39:57;97879.94;;;6.60;57.65
35649;BME280;21768;48.562;13.414;2023-04-03T00:42:24;97889.34;;;6.63;57.67
35649;BME280;21768;48.562;13.414;2023-04-03T00:47:18;97884.34;;;6.63;57.80
35649;BME280;21768;48.562;13.414;2023-04-03T00:49:45;97884.75;;;6.67;57.78
35649;BME280;21768;48.562;13.414;2023-04-03T00:52:16;97887.13;;;6.66;57.79
35649;BME280;21768;48.562;13.414;2023-04-03T00:54:44;97882.84;;;6.65;57.79
35649;BME280;21768;48.562;13.414;2023-04-03T00:57:12;97885.22;;;6.63;57.98
35649;BME280;21768;48.562;13.414;2023-04-03T00:59:51;97885.22;;;6.63;57.93
35649;BME280;21768;48.562;13.414;2023-04-03T01:02:18;97885.34;;;6.65;57.86
35649;BME280;21768;48.562;13.414;2023-04-03T01:04:44;97888.00;;;6.66;57.87
35649;BME280;21768;48.562;13.414;2023-04-03T01:07:15;97887.25;;;6.67;58.04
35649;BME280;21768;48.562;13.414;2023-04-03T01:09:42;97884.84;;;6.69;58.06
35649;BME280;21768;48.562;13.414;2023-04-03T01:14:44;97887.13;;;6.66;58.15
35649;BME280;21768;48.562;13.414;2023-04-03T01:17:50;97891.13;;;6.64;58.29
35649;BME280;21768;48.562;13.414;2023-04-03T01:25:33;97900.72;;;6.59;58.57
35649;BME280;21768;48.562;13.414;2023-04-03T01:28:00;97898.84;;;6.57;58.61
35649;BME280;21768;48.562;13.414;2023-04-03T01:30:31;97898.09;;;6.58;59.03
35649;BME280;21768;48.562;13.414;2023-04-03T01:32:58;97900.59;;;6.58;58.77
35649;BME280;21768;48.562;13.414;2023-04-03T01:35:24;97893.22;;;6.59;58.50
35649;BME280;21768;48.562;13.414;2023-04-03T01:37:50;97895.84;;;6.61;58.21
35649;BME280;21768;48.562;13.414;2023-04-03T01:40:16;97899.84;;;6.59;58.45
35649;BME280;21768;48.562;13.414;2023-04-03T01:42:41;97899.84;;;6.59;58.35
35649;BME280;21768;48.562;13.414;2023-04-03T01:45:07;97899.84;;;6.59;58.72
35649;BME280;21768;48.562;13.414;2023-04-03T01:47:33;97901.00;;;6.62;58.69
35649;BME280;21768;48.562;13.414;2023-04-03T01:49:59;97903.19;;;6.68;58.98
35649;BME280;21768;48.562;13.414;2023-04-03T01:52:24;97893.91;;;6.67;58.80
35649;BME280;21768;48.562;13.414;2023-04-03T01:54:50;97902.03;;;6.64;58.70
35649;BME280;21768;48.562;13.414;2023-04-03T01:57:16;97898.50;;;6.62;58.80
35649;BME280;21768;48.562;13.414;2023-04-03T01:59:42;97901.47;;;6.58;58.98
35649;BME280;21768;48.562;13.414;2023-04-03T02:02:08;97908.25;;;6.59;59.14
35649;BME280;21768;48.562;13.414;2023-04-03T02:04:34;97894.97;;;6.60;58.92
35649;BME280;21768;48.562;13.414;2023-04-03T02:07:00;97900.00;;;6.60;58.76
35649;BME280;21768;48.562;13.414;2023-04-03T02:09:26;97893.97;;;6.58;58.49
35649;BME280;21768;48.562;13.414;2023-04-03T02:11:52;97898.97;;;6.58;58.71
35649;BME280;21768;48.562;13.414;2023-04-03T02:14:18;97895.84;;;6.61;58.38
35649;BME280;21768;48.562;13.414;2023-04-03T02:16:44;97901.63;;;6.60;58.43
35649;BME280;21768;48.562;13.414;2023-04-03T02:19:09;97894.69;;;6.57;59.28
35649;BME280;21768;48.562;13.414;2023-04-03T02:21:35;97893.81;;;6.57;59.37
35649;BME280;21768;48.562;13.414;2023-04-03T02:24:00;97901.22;;;6.55;59.67
35649;BME280;21768;48.562;13.414;2023-04-03T02:26:26;97897.06;;;6.56;59.86
35649;BME280;21768;48.562;13.414;2023-04-03T02:28:51;97898.84;;;6.57;60.15
35649;BME280;21768;48.562;13.414;2023-04-03T02:31:17;97895.31;;;6.55;60.10
35649;BME280;21768;48.562;13.414;2023-04-03T02:33:43;97894.44;;;6.54;60.36
35649;BME280;21768;48.562;13.414;2023-04-03T02:36:09;97905.34;;;6.55;60.60
35649;BME280;21768;48.562;13.414;2023-04-03T02:38:35;97907.84;;;6.55;60.50
35649;BME280;21768;48.562;13.414;2023-04-03T02:41:06;97895.78;;;6.51;60.69
35649;BME280;21768;48.562;13.414;2023-04-03T02:43:32;97900.06;;;6.52;60.72
35649;BME280;21768;48.562;13.414;2023-04-03T02:45:58;97892.81;;;6.55;60.79
35649;BME280;21768;48.562;13.414;2023-04-03T02:48:24;97890.28;;;6.55;60.86
35649;BME280;21768;48.562;13.414;2023-04-03T02:50:50;97890.91;;;6.52;61.25
35649;BME280;21768;48.562;13.414;2023-04-03T02:53:18;97897.41;;;6.50;61.55
35649;BME280;21768;48.562;13.414;2023-04-03T02:55:44;97899.16;;;6.51;61.32
35649;BME280;21768;48.562;13.414;2023-04-03T02:58:09;97897.69;;;6.53;61.24
35649;BME280;21768;48.562;13.414;2023-04-03T03:00:35;97905.06;;;6.52;60.93
35649;BME280;21768;48.562;13.414;2023-04-03T03:03:01;97905.81;;;6.51;60.75
35649;BME280;21768;48.562;13.414;2023-04-03T03:05:27;97907.28;;;6.48;60.34
35649;BME280;21768;48.562;13.414;2023-04-03T03:07:53;97906.28;;;6.46;60.79
35649;BME280;21768;48.562;13.414;2023-04-03T03:10:20;97905.66;;;6.49;61.47
35649;BME280;21768;48.562;13.414;2023-04-03T03:12:45;97904.78;;;6.48;61.54
35649;BME280;21768;48.562;13.414;2023-04-03T03:15:12;97906.28;;;6.46;61.80
35649;BME280;21768;48.562;13.414;2023-04-03T03:17:38;97904.38;;;6.44;61.69
35649;BME280;21768;48.562;13.414;2023-04-03T03:20:05;97902.75;;;6.44;61.86
35649;BME280;21768;48.562;13.414;2023-04-03T03:22:32;97903.03;;;6.47;61.94
35649;BME280;21768;48.562;13.414;2023-04-03T03:24:58;97897.75;;;6.44;61.86
35649;BME280;21768;48.562;13.414;2023-04-03T03:27:23;97897.75;;;6.44;61.76
35649;BME280;21768;48.562;13.414;2023-04-03T03:29:49;97892.63;;;6.43;62.00
35649;BME280;21768;48.562;13.414;2023-04-03T03:32:15;97901.88;;;6.44;61.88
35649;BME280;21768;48.562;13.414;2023-04-03T03:34:41;97897.63;;;6.43;62.09
35649;BME280;21768;48.562;13.414;2023-04-03T03:37:07;97896.75;;;6.42;61.85
35649;BME280;21768;48.562;13.414;2023-04-03T03:39:32;97901.50;;;6.39;61.79
35649;BME280;21768;48.562;13.414;2023-04-03T03:41:58;97907.09;;;6.37;62.19
35649;BME280;21768;48.562;13.414;2023-04-03T03:44:23;97913.75;;;6.36;61.95
35649;BME280;21768;48.562;13.414;2023-04-03T03:46:49;97911.38;;;6.38;61.61
35649;BME280;21768;48.562;13.414;2023-04-03T03:49:15;97901.97;;;6.35;61.48
35649;BME280;21768;48.562;13.414;2023-04-03T03:51:41;97902.84;;;6.36;61.42
35649;BME280;21768;48.562;13.414;2023-04-03T03:54:06;97907.25;;;6.38;61.53
35649;BME280;21768;48.562;13.414;2023-04-03T03:56:34;97908.25;;;6.40;61.63
35649;BME280;21768;48.562;13.414;2023-04-03T03:58:59;97897.50;;;6.41;61.25
35649;BME280;21768;48.562;13.414;2023-04-03T04:01:25;97906.22;;;6.36;61.31
35649;BME280;21768;48.562;13.414;2023-04-03T04:03:51;97894.16;;;6.32;61.49
35649;BME280;21768;48.562;13.414;2023-04-03T04:06:19;97897.41;;;6.31;61.15
35649;BME280;21768;48.562;13.414;2023-04-03T04:08:44;97902.44;;;6.31;61.11
35649;BME280;21768;48.562;13.414;2023-04-03T04:11:10;97901.06;;;6.35;61.05
35649;BME280;21768;48.562;13.414;2023-04-03T04:13:36;97898.09;;;6.39;61.14
35649;BME280;21768;48.562;13.414;2023-04-03T04:16:01;97898.25;;;6.40;60.89
35649;BME280;21768;48.562;13.414;2023-04-03T04:18:27;97899.13;;;6.41;60.76
35649;BME280;21768;48.562;13.414;2023-04-03T04:20:53;97904.00;;;6.39;60.82
35649;BME280;21768;48.562;13.414;2023-04-03T04:23:19;97898.72;;;6.36;60.83
35649;BME280;21768;48.562;13.414;2023-04-03T04:25:45;97902.69;;;6.34;60.74
35649;BME280;21768;48.562;13.414;2023-04-03T04:28:12;97904.94;;;6.31;60.42
35649;BME280;21768;48.562;13.414;2023-04-03T04:30:37;97898.91;;;6.29;60.13
35649;BME280;21768;48.562;13.414;2023-04-03T04:33:03;97906.41;;;6.29;60.21
35649;BME280;21768;48.562;13.414;2023-04-03T04:35:29;97910.53;;;6.29;60.35
35649;BME280;21768;48.562;13.414;2023-04-03T04:37:54;97909.66;;;6.28;60.16
35649;BME280;21768;48.562;13.414;2023-04-03T04:40:21;97909.66;;;6.28;60.03
35649;BME280;21768;48.562;13.414;2023-04-03T04:42:46;97911.09;;;6.35;59.70
35649;BME280;21768;48.562;13.414;2023-04-03T04:45:12;97906.22;;;6.36;59.56
35649;BME280;21768;48.562;13.414;2023-04-03T04:47:37;97917.88;;;6.36;59.81
35649;BME280;21768;48.562;13.414;2023-04-03T04:50:03;97914.22;;;6.32;60.18
35649;BME280;21768;48.562;13.414;2023-04-03T04:52:29;97922.47;;;6.31;60.29
35649;BME280;21768;48.562;13.414;2023-04-03T04:54:55;97921.72;;;6.32;60.59
35649;BME280;21768;48.562;13.414;2023-04-03T04:57:21;97921.13;;;6.35;60.67
35649;BME280;21768;48.562;13.414;2023-04-03T04:59:46;97917.00;;;6.35;60.70
35649;BME280;21768;48.562;13.414;2023-04-03T05:02:12;97920.09;;;6.33;60.78
35649;BME280;21768;48.562;13.414;2023-04-03T05:04:38;97926.88;;;6.34;61.26
35649;BME280;21768;48.562;13.414;2023-04-03T05:07:06;97925.84;;;6.32;61.36
35649;BME280;21768;48.562;13.414;2023-04-03T05:09:31;97931.00;;;6.33;61.04
35649;BME280;21768;48.562;13.414;2023-04-03T05:11:57;97924.97;;;6.31;61.10
35649;BME280;21768;48.562;13.414;2023-04-03T05:14:23;97930.13;;;6.33;61.17
35649;BME280;21768;48.562;13.414;2023-04-03T05:16:48;97922.75;;;6.34;60.94
35649;BME280;21768;48.562;13.414;2023-04-03T05:19:22;97927.47;;;6.31;60.96
35649;BME280;21768;48.562;13.414;2023-04-03T05:21:48;97923.69;;;6.26;60.66
35649;BME280;21768;48.562;13.414;2023-04-03T05:24:15;97924.41;;;6.25;60.67
35649;BME280;21768;48.562;13.414;2023-04-03T05:26:42;97933.69;;;6.26;61.24
35649;BME280;21768;48.562;13.414;2023-04-03T05:29:08;97933.50;;;6.33;61.25
35649;BME280;21768;48.562;13.414;2023-04-03T05:31:34;97937.66;;;6.33;61.39
35649;BME280;21768;48.562;13.414;2023-04-03T05:33:59;97945.44;;;6.36;61.44
35649;BME280;21768;48.562;13.414;2023-04-03T05:36:26;97941.78;;;6.32;61.25
35649;BME280;21768;48.562;13.414;2023-04-03T05:38:52;97939.44;;;6.25;61.26
35649;BME280;21768;48.562;13.414;2023-04-03T05:41:22;97933.88;;;6.19;61.29
35649;BME280;21768;48.562;13.414;2023-04-03T05:43:47;97943.06;;;6.19;61.37
35649;BME280;21768;48.562;13.414;2023-04-03T05:46:15;97935.66;;;6.20;61.29
35649;BME280;21768;48.562;13.414;2023-04-03T05:48:42;97938.28;;;6.22;61.26
35649;BME280;21768;48.562;13.414;2023-04-03T05:51:15;97937.09;;;6.27;61.40
35649;BME280;21768;48.562;13.414;2023-04-03T05:53:41;97941.16;;;6.35;61.68
35649;BME280;21768;48.562;13.414;2023-04-03T05:56:07;97944.09;;;6.39;61.89
35649;BME280;21768;48.562;13.414;2023-04-03T05:58:32;97944.47;;;6.44;61.50
35649;BME280;21768;48.562;13.414;2023-04-03T06:00:57;97951.53;;;6.48;61.15
35649;BME280;21768;48.562;13.414;2023-04-03T06:03:23;97951.06;;;6.52;60.86
35649;BME280;21768;48.562;13.414;2023-04-03T06:05:49;97953.97;;;6.57;61.02
35649;BME280;21768;48.562;13.414;2023-04-03T06:08:15;97955.28;;;6.62;61.18
35649;BME280;21768;48.562;13.414;2023-04-03T06:10:40;97952.44;;;6.67;60.98
35649;BME280;21768;48.562;13.414;2023-04-03T06:13:06;97950.31;;;6.72;60.54
35649;BME280;21768;48.562;13.414;2023-04-03T06:15:32;97957.97;;;6.73;60.64
35649;BME280;21768;48.562;13.414;2023-04-03T06:17:59;97960.06;;;6.69;60.16
35649;BME280;21768;48.562;13.414;2023-04-03T06:20:24;97960.34;;;6.72;60.09
35649;BME280;21768;48.562;13.414;2023-04-03T06:22:50;97960.00;;;6.77;60.19
35649;BME280;21768;48.562;13.414;2023-04-03T06:25:15;97965.03;;;6.77;60.01
35649;BME280;21768;48.562;13.414;2023-04-03T06:27:42;97967.41;;;6.76;60.12
35649;BME280;21768;48.562;13.414;2023-04-03T06:30:08;97967.66;;;6.79;59.31
35649;BME280;21768;48.562;13.414;2023-04-03T06:32:34;97955.53;;;6.83;59.08
35649;BME280;21768;48.562;13.414;2023-04-03T06:34:59;97975.25;;;6.89;58.81
35649;BME280;21768;48.562;13.414;2023-04-03T06:37:25;97972.53;;;6.96;58.13
35649;BME280;21768;48.562;13.414;2023-04-03T06:39:52;97979.44;;;6.99;58.06
35649;BME280;21768;48.562;13.414;2023-04-03T06:42:17;97975.72;;;7.04;58.17
35649;BME280;21768;48.562;13.414;2023-04-03T06:44:44;97976.59;;;7.04;57.84
35649;BME280;21768;48.562;13.414;2023-04-03T06:47:14;97982.34;;;7.03;57.39
35649;BME280;21768;48.562;13.414;2023-04-03T06:49:40;97982.75;;;7.08;57.26
35649;BME280;21768;48.562;13.414;2023-04-03T06:52:07;97990.69;;;7.12;56.79
35649;BME280;21768;48.562;13.414;2023-04-03T06:54:33;97986.28;;;7.10;56.77
35649;BME280;21768;48.562;13.414;2023-04-03T06:56:59;97990.03;;;7.05;56.71
35649;BME280;21768;48.562;13.414;2023-04-03T06:59:25;97995.91;;;7.05;57.15
35649;BME280;21768;48.562;13.414;2023-04-03T07:01:51;97996.66;;;7.04;57.10
35649;BME280;21768;48.562;13.414;2023-04-03T07:04:16;98004.31;;;7.06;57.24
35649;BME280;21768;48.562;13.414;2023-04-03T07:06:42;97998.69;;;7.08;57.19
35649;BME280;21768;48.562;13.414;2023-04-03T07:09:09;98011.66;;;7.13;57.59
35649;BME280;21768;48.562;13.414;2023-04-03T07:11:35;98002.53;;;7.24;57.13
35649;BME280;21768;48.562;13.414;2023-04-03T07:14:02;98005.25;;;7.35;57.27
35649;BME280;21768;48.562;13.414;2023-04-03T07:16:27;98006.66;;;7.42;57.05
35649;BME280;21768;48.562;13.414;2023-04-03T07:18:53;98013.34;;;7.51;56.98
35649;BME280;21768;48.562;13.414;2023-04-03T07:21:19;98006.19;;;7.56;56.33
35649;BME280;21768;48.562;13.414;2023-04-03T07:23:45;98017.28;;;7.68;56.18
35649;BME280;21768;48.562;13.414;2023-04-03T07:26:10;98016.78;;;7.72;55.71
35649;BME280;21768;48.562;13.414;2023-04-03T07:28:36;98013.28;;;7.70;55.42
35649;BME280;21768;48.562;13.414;2023-04-03T07:31:04;98020.81;;;7.70;55.52
35649;BME280;21768;48.562;13.414;2023-04-03T07:33:31;98022.34;;;7.78;54.88
35649;BME280;21768;48.562;13.414;2023-04-03T07:35:57;98018.72;;;7.85;54.38
35649;BME280;21768;48.562;13.414;2023-04-03T07:38:24;98025.53;;;7.96;54.72
35649;BME280;21768;48.562;13.414;2023-04-03T07:40:50;98018.91;;;8.07;54.49
35649;BME280;21768;48.562;13.414;2023-04-03T07:43:18;98023.19;;;8.18;54.24
35649;BME280;21768;48.562;13.414;2023-04-03T07:45:45;98019.69;;;8.16;53.23
35649;BME280;21768;48.562;13.414;2023-04-03T07:48:13;98021.94;;;8.13;53.35
35649;BME280;21768;48.562;13.414;2023-04-03T07:50:42;98019.19;;;8.10;52.31
35649;BME280;21768;48.562;13.414;2023-04-03T07:53:07;98019.53;;;8.04;52.15
35649;BME280;21768;48.562;13.414;2023-04-03T07:55:33;98018.88;;;7.97;52.12
35649;BME280;21768;48.562;13.414;2023-04-03T07:57:59;98027.28;;;7.87;51.55
35649;BME280;21768;48.562;13.414;2023-04-03T08:00:25;98021.88;;;7.82;51.33
35649;BME280;21768;48.562;13.414;2023-04-03T08:02:50;98027.91;;;7.84;51.14
35649;BME280;21768;48.562;13.414;2023-04-03T08:05:20;98028.03;;;7.96;50.10
35649;BME280;21768;48.562;13.414;2023-04-03T08:07:46;98029.31;;;8.01;49.42
35649;BME280;21768;48.562;13.414;2023-04-03T08:10:13;98029.84;;;8.07;48.31
35649;BME280;21768;48.562;13.414;2023-04-03T08:12:39;98034.75;;;8.06;47.56
35649;BME280;21768;48.562;13.414;2023-04-03T08:15:06;98034.50;;;8.13;47.45
35649;BME280;21768;48.562;13.414;2023-04-03T08:17:32;98033.25;;;8.18;47.62
35649;BME280;21768;48.562;13.414;2023-04-03T08:19:58;98038.44;;;8.30;47.27
35649;BME280;21768;48.562;13.414;2023-04-03T08:22:25;98037.34;;;8.46;45.20
35649;BME280;21768;48.562;13.414;2023-04-03T08:24:51;98035.09;;;8.60;44.98
35649;BME280;21768;48.562;13.414;2023-04-03T08:27:17;98033.81;;;8.95;45.26
35649;BME280;21768;48.562;13.414;2023-04-03T08:29:42;98034.38;;;9.33;44.09
35649;BME280;21768;48.562;13.414;2023-04-03T08:32:08;98035.72;;;9.50;41.95
35649;BME280;21768;48.562;13.414;2023-04-03T08:34:34;98039.47;;;9.55;42.32
35649;BME280;21768;48.562;13.414;2023-04-03T08:37:02;98031.06;;;9.76;41.63
35649;BME280;21768;48.562;13.414;2023-04-03T08:39:28;98038.53;;;10.18;40.71
35649;BME280;21768;48.562;13.414;2023-04-03T08:41:57;98031.25;;;10.88;39.42
35649;BME280;21768;48.562;13.414;2023-04-03T08:44:59;98023.16;;;11.51;37.85
35649;BME280;21768;48.562;13.414;2023-04-03T08:47:24;98019.91;;;12.12;36.67
35649;BME280;21768;48.562;13.414;2023-04-03T08:50:04;98026.78;;;13.53;35.93
35649;BME280;21768;48.562;13.414;2023-04-03T08:52:46;98022.56;;;14.92;33.90
35649;BME280;21768;48.562;13.414;2023-04-03T08:55:27;98013.84;;;16.73;31.08
35649;BME280;21768;48.562;13.414;2023-04-03T08:58:05;98012.09;;;18.12;29.87
35649;BME280;21768;48.562;13.414;2023-04-03T09:01:36;98002.75;;;18.32;29.52
35649;BME280;21768;48.562;13.414;2023-04-03T09:03:41;98001.88;;;19.10;26.56
35649;BME280;21768;48.562;13.414;2023-04-03T09:06:23;98001.28;;;20.24;25.27
35649;BME280;21768;48.562;13.414;2023-04-03T09:12:15;98010.38;;;20.38;25.55
35649;BME280;21768;48.562;13.414;2023-04-03T09:23:11;98017.88;;;21.85;21.43
35649;BME280;21768;48.562;13.414;2023-04-03T09:25:38;98005.19;;;23.44;19.84
35649;BME280;21768;48.562;13.414;2023-04-03T09:28:04;98022.63;;;24.29;19.00
35649;BME280;21768;48.562;13.414;2023-04-03T09:30:35;98012.84;;;24.97;17.86
35649;BME280;21768;48.562;13.414;2023-04-03T09:33:01;98016.22;;;24.52;18.07
35649;BME280;21768;48.562;13.414;2023-04-03T09:35:32;98011.94;;;24.53;18.11
35649;BME280;21768;48.562;13.414;2023-04-03T09:40:39;98015.88;;;25.24;17.04
35649;BME280;21768;48.562;13.414;2023-04-03T09:43:24;98022.00;;;23.29;18.73
35649;BME280;21768;48.562;13.414;2023-04-03T09:45:51;98020.38;;;22.38;19.24
35649;BME280;21768;48.562;13.414;2023-04-03T09:48:23;98015.03;;;22.92;18.76
35649;BME280;21768;48.562;13.414;2023-04-03T09:53:34;98019.28;;;24.76;18.44
35649;BME280;21768;48.562;13.414;2023-04-03T09:56:18;98022.97;;;25.87;16.42
35649;BME280;21768;48.562;13.414;2023-04-03T10:01:27;98015.75;;;28.02;15.17
35649;BME280;21768;48.562;13.414;2023-04-03T10:04:04;98009.31;;;29.35;14.28
35649;BME280;21768;48.562;13.414;2023-04-03T10:06:32;98015.28;;;30.32;13.48
35649;BME280;21768;48.562;13.414;2023-04-03T10:09:00;98012.50;;;30.76;13.28
35649;BME280;21768;48.562;13.414;2023-04-03T10:11:28;98004.28;;;31.41;12.30
35649;BME280;21768;48.562;13.414;2023-04-03T10:14:02;98009.59;;;31.28;13.01
35649;BME280;21768;48.562;13.414;2023-04-03T10:21:49;98007.56;;;29.22;12.92
35649;BME280;21768;48.562;13.414;2023-04-03T10:27:11;98002.16;;;30.52;12.95
35649;BME280;21768;48.562;13.414;2023-04-03T10:32:23;98010.13;;;31.71;11.92
35649;BME280;21768;48.562;13.414;2023-04-03T10:35:08;98009.13;;;30.53;12.69
35649;BME280;21768;48.562;13.414;2023-04-03T10:38:04;98005.88;;;29.61;13.62
35649;BME280;21768;48.562;13.414;2023-04-03T10:46:38;98004.13;;;29.69;13.31
35649;BME280;21768;48.562;13.414;2023-04-03T10:52:55;98004.81;;;31.80;11.82
35649;BME280;21768;48.562;13.414;2023-04-03T10:57:27;98006.00;;;27.62;13.39
35649;BME280;21768;48.562;13.414;2023-04-03T11:00:06;98007.22;;;27.08;14.13
35649;BME280;21768;48.562;13.414;2023-04-03T11:02:48;97997.16;;;29.72;12.50
35649;BME280;21768;48.562;13.414;2023-04-03T11:05:29;97991.31;;;31.29;12.08
35649;BME280;21768;48.562;13.414;2023-04-03T11:08:02;98006.44;;;30.72;11.33
35649;BME280;21768;48.562;13.414;2023-04-03T11:10:35;97993.03;;;27.65;13.49
35649;BME280;21768;48.562;13.414;2023-04-03T11:13:37;98010.34;;;22.78;16.04
35649;BME280;21768;48.562;13.414;2023-04-03T11:16:06;98004.69;;;19.79;18.64
35649;BME280;21768;48.562;13.414;2023-04-03T11:18:39;98009.97;;;20.05;18.91
35649;BME280;21768;48.562;13.414;2023-04-03T11:21:12;98012.50;;;18.41;19.25
35649;BME280;21768;48.562;13.414;2023-04-03T11:23:41;98014.91;;;16.94;20.74
35649;BME280;21768;48.562;13.414;2023-04-03T11:26:29;97994.19;;;19.29;19.39
35649;BME280;21768;48.562;13.414;2023-04-03T11:29:03;98001.13;;;21.17;17.53
35649;BME280;21768;48.562;13.414;2023-04-03T11:36:53;97992.25;;;22.74;17.12
35649;BME280;21768;48.562;13.414;2023-04-03T11:39:29;98000.09;;;19.49;18.83
35649;BME280;21768;48.562;13.414;2023-04-03T11:42:13;98012.56;;;16.81;21.38
35649;BME280;21768;48.562;13.414;2023-04-03T11:44:40;98013.78;;;15.46;23.54
35649;BME280;21768;48.562;13.414;2023-04-03T11:47:11;98014.38;;;14.68;23.87
35649;BME280;21768;48.562;13.414;2023-04-03T12:03:31;98013.72;;;14.43;24.88
35649;BME280;21768;48.562;13.414;2023-04-03T12:13:37;98015.38;;;13.47;26.41
35649;BME280;21768;48.562;13.414;2023-04-03T12:16:05;98018.13;;;13.12;26.45
35649;BME280;21768;48.562;13.414;2023-04-03T12:21:22;98013.13;;;12.49;28.23
35649;BME280;21768;48.562;13.414;2023-04-03T12:26:40;98015.63;;;11.99;28.09
35649;BME280;21768;48.562;13.414;2023-04-03T12:29:17;98010.03;;;11.91;29.03
35649;BME280;21768;48.562;13.414;2023-04-03T12:46:33;98004.19;;;12.29;27.97
35649;BME280;21768;48.562;13.414;2023-04-03T12:49:01;98001.19;;;12.10;28.54
35649;BME280;21768;48.562;13.414;2023-04-03T12:51:34;97993.44;;;11.95;28.23
35649;BME280;21768;48.562;13.414;2023-04-03T12:54:15;97998.81;;;12.24;29.08
35649;BME280;21768;48.562;13.414;2023-04-03T12:56:41;97990.13;;;12.71;27.81
35649;BME280;21768;48.562;13.414;2023-04-03T12:59:26;97992.59;;;12.95;27.65
35649;BME280;21768;48.562;13.414;2023-04-03T13:01:56;98000.16;;;13.20;28.65
35649;BME280;21768;48.562;13.414;2023-04-03T13:04:23;98000.16;;;13.20;27.75
35649;BME280;21768;48.562;13.414;2023-04-03T13:06:49;97996.47;;;12.77;28.56
35649;BME280;21768;48.562;13.414;2023-04-03T13:09:29;98004.00;;;12.26;28.66
35649;BME280;21768;48.562;13.414;2023-04-03T13:14:28;97989.38;;;11.74;29.64
35649;BME280;21768;48.562;13.414;2023-04-03T13:17:10;98008.84;;;11.40;30.05
35649;BME280;21768;48.562;13.414;2023-04-03T13:19:39;98000.53;;;11.17;30.76
35649;BME280;21768;48.562;13.414;2023-04-03T13:24:51;97995.81;;;11.22;31.11
35649;BME280;21768;48.562;13.414;2023-04-03T13:27:19;97995.94;;;11.12;31.16
35649;BME280;21768;48.562;13.414;2023-04-03T13:29:50;98002.84;;;11.03;31.01
35649;BME280;21768;48.562;13.414;2023-04-03T13:32:20;98007.31;;;10.95;31.04
35649;BME280;21768;48.562;13.414;2023-04-03T13:34:47;98012.72;;;10.88;31.29
35649;BME280;21768;48.562;13.414;2023-04-03T13:37:32;98012.47;;;10.85;30.57
35649;BME280;21768;48.562;13.414;2023-04-03T13:42:36;97996.13;;;10.46;30.10
35649;BME280;21768;48.562;13.414;2023-04-03T13:45:29;97998.06;;;10.61;30.62
35649;BME280;21768;48.562;13.414;2023-04-03T13:48:10;97991.00;;;10.56;30.18
35649;BME280;21768;48.562;13.414;2023-04-03T13:53:16;97995.59;;;10.50;31.13
35649;BME280;21768;48.562;13.414;2023-04-03T13:58:26;98000.59;;;10.72;30.80
35649;BME280;21768;48.562;13.414;2023-04-03T14:06:19;98001.00;;;10.67;30.62
35649;BME280;21768;48.562;13.414;2023-04-03T14:08:46;98000.13;;;10.54;30.44
35649;BME280;21768;48.562;13.414;2023-04-03T14:11:19;97997.09;;;10.37;30.78
35649;BME280;21768;48.562;13.414;2023-04-03T14:13:46;98007.91;;;10.24;30.65
35649;BME280;21768;48.562;13.414;2023-04-03T14:16:15;98000.59;;;10.17;30.14
35649;BME280;21768;48.562;13.414;2023-04-03T14:18:43;97998.50;;;10.11;30.18
35649;BME280;21768;48.562;13.414;2023-04-03T14:21:12;98001.06;;;10.01;30.28
35649;BME280;21768;48.562;13.414;2023-04-03T14:23:38;98000.31;;;10.02;29.96
35649;BME280;21768;48.562;13.414;2023-04-03T14:26:08;98004.63;;;10.25;30.28
35649;BME280;21768;48.562;13.414;2023-04-03T14:28:35;97997.94;;;10.71;30.61
35649;BME280;21768;48.562;13.414;2023-04-03T14:31:01;97993.59;;;11.03;30.24
35649;BME280;21768;48.562;13.414;2023-04-03T14:33:27;97989.13;;;11.34;30.72
35649;BME280;21768;48.562;13.414;2023-04-03T14:35:54;97984.69;;;11.55;30.54
35649;BME280;21768;48.562;13.414;2023-04-03T14:38:26;97992.00;;;11.75;30.15
35649;BME280;21768;48.562;13.414;2023-04-03T14:40:52;97984.69;;;11.55;29.96
35649;BME280;21768;48.562;13.414;2023-04-03T14:43:18;97991.63;;;11.22;29.43
35649;BME280;21768;48.562;13.414;2023-04-03T14:45:45;97992.06;;;10.94;30.14
35649;BME280;21768;48.562;13.414;2023-04-03T14:48:23;97993.56;;;10.68;29.65
35649;BME280;21768;48.562;13.414;2023-04-03T14:50:51;97994.13;;;10.42;29.63
35649;BME280;21768;48.562;13.414;2023-04-03T14:53:17;97999.03;;;10.29;30.15
35649;BME280;21768;48.562;13.414;2023-04-03T14:55:49;98001.47;;;10.17;30.22
35649;BME280;21768;48.562;13.414;2023-04-03T14:58:16;97998.81;;;10.16;30.33
35649;BME280;21768;48.562;13.414;2023-04-03T15:00:43;98004.47;;;10.02;30.45
35649;BME280;21768;48.562;13.414;2023-04-03T15:03:17;98012.56;;;9.76;30.51